Estación de Rinconada
Ultimos registro cada 15 minutos 40
| N° | Estación | Fecha / Hora | Temperatura | Humedad | Lluvia | Velocidad | Dirección | Radiación | Presion |
| 40 | Rinconada | 09-05-2026 09:45 | 10,9 | 62 | 0 | 0 | 188 | 362 | 1016,9 |
| 39 | Rinconada | 09-05-2026 09:30 | 9,6 | 69 | 0 | 0 | 166 | 322 | 1016,9 |
| 38 | Rinconada | 09-05-2026 09:15 | 8,3 | 72 | 0 | 0,4 | 165 | 276 | 1016,9 |
| 37 | Rinconada | 09-05-2026 09:00 | 6,3 | 79 | 0 | 0 | 166 | 227 | 1017 |
| 36 | Rinconada | 09-05-2026 08:45 | 4,5 | 84 | 0 | 0 | 186 | 172 | 1017,1 |
| 35 | Rinconada | 09-05-2026 08:30 | 3 | 88 | 0 | 0,9 | 189 | 127 | 1016,9 |
| 34 | Rinconada | 09-05-2026 08:15 | 1,2 | 91 | 0 | 0,4 | 240 | 63 | 1016,9 |
| 33 | Rinconada | 09-05-2026 08:00 | -0,1 | 91 | 0 | 0 | 170 | 21 | 1016,6 |
| 32 | Rinconada | 09-05-2026 07:45 | -0,5 | 88 | 0 | 0 | 170 | 12 | 1016,7 |
| 31 | Rinconada | 09-05-2026 07:30 | -0,4 | 87 | 0 | 0 | 270 | 7 | 1016,8 |
| 30 | Rinconada | 09-05-2026 07:15 | -0,2 | 88 | 0 | 0 | 270 | 0 | 1016,4 |
| 29 | Rinconada | 09-05-2026 07:00 | 0,2 | 88 | 0 | 0 | 170 | 0 | 1016,3 |
| 28 | Rinconada | 09-05-2026 06:45 | 0,3 | 87 | 0 | 0,9 | 132 | 0 | 1016,2 |
| 27 | Rinconada | 09-05-2026 06:30 | 0,6 | 88 | 0 | 0 | 148 | 0 | 1016,1 |
| 26 | Rinconada | 09-05-2026 06:15 | 0,5 | 88 | 0 | 0 | 135 | 0 | 1015,9 |
| 25 | Rinconada | 09-05-2026 06:00 | 0,6 | 88 | 0 | 0 | 135 | 0 | 1015,9 |
| 24 | Rinconada | 09-05-2026 05:45 | 0,7 | 88 | 0 | 0,9 | 134 | 0 | 1016 |
| 23 | Rinconada | 09-05-2026 05:30 | 0,7 | 88 | 0 | 0,4 | 199 | 0 | 1015,9 |
| 22 | Rinconada | 09-05-2026 05:15 | 0,8 | 87 | 0 | 0 | 199 | 0 | 1015,6 |
| 21 | Rinconada | 09-05-2026 05:00 | 0,8 | 87 | 0 | 0,4 | 199 | 0 | 1015,7 |
| 20 | Rinconada | 09-05-2026 04:45 | 1 | 86 | 0 | 0 | 199 | 0 | 1015,5 |
| 19 | Rinconada | 09-05-2026 04:30 | 1,1 | 85 | 0 | 0 | 142 | 0 | 1015,6 |
| 18 | Rinconada | 09-05-2026 04:15 | 1,3 | 84 | 0 | 0 | 141 | 0 | 1015,2 |
| 17 | Rinconada | 09-05-2026 04:00 | 1,7 | 86 | 0 | 0,4 | 140 | 0 | 1015,1 |
| 16 | Rinconada | 09-05-2026 03:45 | 1,8 | 86 | 0 | 0,4 | 134 | 0 | 1015 |
| 15 | Rinconada | 09-05-2026 03:30 | 1,8 | 85 | 0 | 0 | 154 | 0 | 1015,2 |
| 14 | Rinconada | 09-05-2026 03:15 | 2,1 | 85 | 0 | 0 | 154 | 0 | 1015,5 |
| 13 | Rinconada | 09-05-2026 03:00 | 2,4 | 84 | 0 | 0 | 162 | 0 | 1015,3 |
| 12 | Rinconada | 09-05-2026 02:45 | 2,7 | 84 | 0 | 0 | 162 | 0 | 1015,5 |
| 11 | Rinconada | 09-05-2026 02:30 | 2,7 | 84 | 0 | 0 | 162 | 0 | 1015,7 |
| 10 | Rinconada | 09-05-2026 02:15 | 2,8 | 83 | 0 | 0,4 | 255 | 0 | 1015,4 |
| 9 | Rinconada | 09-05-2026 02:00 | 2,8 | 84 | 0 | 0 | 148 | 0 | 1015,6 |
| 8 | Rinconada | 09-05-2026 01:45 | 3 | 82 | 0 | 0 | 180 | 0 | 1015,8 |
| 7 | Rinconada | 09-05-2026 01:30 | 3,3 | 82 | 0 | 0 | 180 | 0 | 1016,1 |
| 6 | Rinconada | 09-05-2026 01:15 | 3,6 | 81 | 0 | 0,4 | 180 | 0 | 1015,9 |
| 5 | Rinconada | 09-05-2026 01:00 | 3,7 | 82 | 0 | 0,4 | 180 | 0 | 1016,1 |
| 4 | Rinconada | 09-05-2026 00:45 | 3,9 | 81 | 0 | 0 | 184 | 0 | 1016 |
| 3 | Rinconada | 09-05-2026 00:30 | 4,1 | 78 | 0 | 0 | 184 | 0 | 1016 |
| 2 | Rinconada | 09-05-2026 00:15 | 4,6 | 79 | 0 | 0 | 184 | 0 | 1016,1 |
| 1 | Rinconada | 09-05-2026 00:00 | 4,7 | 77 | 0 | 0 | 190 | 0 | 1016 |